createdAt,value
2022-11-05T00:00:04.884Z,5.80
2022-11-05T00:03:08.854Z,6.70
2022-11-05T00:06:13.328Z,5.63
2022-11-05T00:09:17.299Z,7.90
2022-11-05T00:12:25.251Z,6.03
2022-11-05T00:15:29.036Z,5.77
2022-11-05T00:18:14.556Z,7.03
2022-11-05T00:20:59.971Z,5.97
2022-11-05T00:24:03.915Z,7.23
2022-11-05T00:26:49.300Z,5.77
2022-11-05T00:29:35.327Z,5.67
2022-11-05T00:32:20.894Z,3.93
2022-11-05T00:35:07.771Z,5.27
2022-11-05T00:37:54.092Z,5.13
2022-11-05T00:40:39.753Z,5.47
2022-11-05T00:43:43.598Z,4.93
2022-11-05T00:46:28.980Z,6.07
2022-11-05T00:49:32.391Z,5.13
2022-11-05T00:52:36.699Z,5.70
2022-11-05T00:55:35.019Z,4.03
2022-11-05T00:58:22.586Z,4.90
2022-11-05T01:01:10.100Z,4.60
2022-11-05T01:03:55.572Z,5.70
2022-11-05T01:06:41.108Z,4.63
2022-11-05T01:09:26.699Z,5.53
2022-11-05T01:12:12.129Z,5.90
2022-11-05T01:14:57.848Z,7.37
2022-11-05T01:17:43.420Z,4.93
2022-11-05T01:20:28.980Z,5.60
2022-11-05T01:23:15.150Z,4.40
2022-11-05T01:26:00.751Z,5.43
2022-11-05T01:28:54.315Z,4.20
2022-11-05T01:31:40.897Z,4.73
2022-11-05T01:34:26.545Z,4.37
2022-11-05T01:37:11.955Z,3.83
2022-11-05T01:39:58.281Z,6.13
2022-11-05T01:42:44.402Z,5.47
2022-11-05T01:45:30.321Z,5.43
2022-11-05T01:48:25.347Z,7.17
2022-11-05T01:51:14.987Z,5.67
2022-11-05T01:54:08.079Z,7.10
2022-11-05T01:56:57.754Z,4.50
2022-11-05T01:59:48.864Z,4.17
2022-11-05T02:02:34.716Z,3.00
2022-11-05T02:05:20.515Z,4.40
2022-11-05T02:08:08.342Z,5.57
2022-11-05T02:10:54.448Z,5.17
2022-11-05T02:13:40.703Z,4.70
2022-11-05T02:16:38.654Z,3.47
2022-11-05T02:19:45.501Z,4.77
2022-11-05T02:22:40.173Z,4.67
2022-11-05T02:26:03.462Z,4.67
2022-11-05T02:29:27.503Z,3.20
2022-11-05T02:32:22.020Z,4.03
2022-11-05T02:35:15.547Z,3.13
2022-11-05T02:38:13.160Z,3.03
2022-11-05T02:41:08.658Z,2.83
2022-11-05T02:44:09.240Z,5.20
2022-11-05T02:47:03.394Z,2.70
2022-11-05T02:50:21.919Z,4.47
2022-11-05T02:53:25.067Z,5.37
2022-11-05T02:56:35.026Z,5.07
2022-11-05T02:59:21.070Z,3.83
2022-11-05T03:02:06.938Z,4.50
2022-11-05T03:04:52.338Z,4.63
2022-11-05T03:07:49.894Z,4.10
2022-11-05T03:11:16.770Z,4.90
2022-11-05T03:14:10.629Z,4.57
2022-11-05T03:17:39.616Z,4.57
2022-11-05T03:20:34.943Z,6.23
2022-11-05T03:23:23.120Z,3.17
2022-11-05T03:26:25.758Z,4.87
2022-11-05T03:29:33.091Z,5.33
2022-11-05T03:32:21.046Z,3.83
2022-11-05T03:35:14.705Z,4.90
2022-11-05T03:38:06.372Z,3.17
2022-11-05T03:40:54.998Z,5.20
2022-11-05T03:43:45.045Z,4.60
2022-11-05T03:46:49.286Z,3.23
2022-11-05T03:49:59.149Z,4.30
2022-11-05T03:52:52.122Z,3.97
2022-11-05T03:55:46.687Z,7.50
2022-11-05T03:58:32.257Z,5.03
2022-11-05T04:01:18.495Z,4.27
2022-11-05T04:04:08.155Z,7.83
2022-11-05T04:07:12.298Z,4.43
2022-11-05T04:10:17.041Z,4.77
2022-11-05T04:13:20.858Z,5.87
2022-11-05T04:16:24.955Z,6.47
2022-11-05T04:19:10.323Z,8.10
2022-11-05T04:22:14.293Z,7.73
2022-11-05T04:24:59.788Z,8.87
2022-11-05T04:27:46.026Z,6.00
2022-11-05T04:30:31.719Z,7.43
2022-11-05T04:33:17.851Z,6.97
2022-11-05T04:36:03.582Z,7.23
2022-11-05T04:38:49.294Z,6.83
2022-11-05T04:41:34.902Z,5.83
2022-11-05T04:44:20.493Z,6.30
2022-11-05T04:47:06.070Z,5.90
2022-11-05T04:49:51.611Z,5.47
2022-11-05T04:52:37.173Z,5.70
2022-11-05T04:55:22.747Z,5.37
2022-11-05T04:58:09.123Z,6.73
2022-11-05T05:00:54.924Z,5.50
2022-11-05T05:03:40.434Z,7.17
2022-11-05T05:06:25.986Z,13.00
2022-11-05T05:09:11.575Z,5.73
2022-11-05T05:11:57.234Z,6.57
2022-11-05T05:14:42.929Z,9.13
2022-11-05T05:17:28.863Z,11.67
2022-11-05T05:20:33.027Z,9.40
2022-11-05T05:23:18.699Z,7.13
2022-11-05T05:26:04.413Z,6.87
2022-11-05T05:28:49.801Z,7.43
2022-11-05T05:31:35.794Z,8.30
2022-11-05T05:34:21.424Z,8.40
2022-11-05T05:37:07.329Z,9.40
2022-11-05T05:39:53.728Z,7.00
2022-11-05T05:42:43.094Z,7.23
2022-11-05T05:45:28.906Z,10.50
2022-11-05T05:48:14.341Z,10.23
2022-11-05T05:51:01.918Z,9.83
2022-11-05T05:53:47.810Z,10.07
2022-11-05T05:56:33.630Z,6.60
2022-11-05T05:59:19.092Z,7.07
2022-11-05T06:02:04.591Z,9.70
2022-11-05T06:04:50.429Z,9.27
2022-11-05T06:07:37.478Z,8.30
2022-11-05T06:10:24.843Z,4.93
2022-11-05T06:13:10.587Z,9.77
2022-11-05T06:16:04.224Z,8.40
2022-11-05T06:18:50.209Z,6.63
2022-11-05T06:21:35.995Z,9.77
2022-11-05T06:24:21.461Z,8.87
2022-11-05T06:27:06.950Z,16.07
2022-11-05T06:29:52.591Z,33.97
2022-11-05T06:32:38.111Z,35.23
2022-11-05T06:35:23.549Z,25.57
2022-11-05T06:38:09.171Z,23.23
2022-11-05T06:40:58.472Z,26.63
2022-11-05T06:43:44.156Z,32.00
2022-11-05T06:46:29.737Z,25.37
2022-11-05T06:49:15.322Z,24.80
2022-11-05T06:52:00.922Z,22.67
2022-11-05T06:54:46.437Z,24.23
2022-11-05T06:57:32.032Z,18.23
2022-11-05T07:00:18.479Z,16.67
2022-11-05T07:03:08.294Z,21.07
2022-11-05T07:05:54.895Z,17.90
2022-11-05T07:08:40.444Z,19.87
2022-11-05T07:11:26.080Z,16.13
2022-11-05T07:14:11.554Z,16.63
2022-11-05T07:16:57.649Z,15.43
2022-11-05T07:19:43.326Z,15.20
2022-11-05T07:22:28.580Z,18.10
2022-11-05T07:25:14.029Z,13.33
2022-11-05T07:28:00.078Z,13.70
2022-11-05T07:30:46.026Z,12.23
2022-11-05T07:33:36.329Z,14.33
2022-11-05T07:36:22.386Z,14.93
2022-11-05T07:39:07.947Z,15.07
2022-11-05T07:41:57.782Z,12.90
2022-11-05T07:44:50.820Z,18.13
2022-11-05T07:48:02.590Z,13.07
2022-11-05T07:50:52.166Z,15.63
2022-11-05T07:53:42.426Z,15.97
2022-11-05T07:56:30.195Z,14.53
2022-11-05T07:59:15.652Z,12.63
2022-11-05T08:02:01.349Z,17.57
2022-11-05T08:04:47.262Z,16.77
2022-11-05T08:07:32.812Z,20.17
2022-11-05T08:10:18.373Z,20.83
2022-11-05T08:13:03.937Z,19.23
2022-11-05T08:15:49.675Z,18.73
2022-11-05T08:18:35.482Z,19.60
2022-11-05T08:21:21.067Z,20.07
2022-11-05T08:24:06.965Z,24.67
2022-11-05T08:26:53.171Z,28.30
2022-11-05T08:29:38.798Z,25.00
2022-11-05T08:32:24.286Z,23.60
2022-11-05T08:35:09.799Z,23.43
2022-11-05T08:38:00.545Z,23.30
2022-11-05T08:40:55.141Z,24.10
2022-11-05T08:43:40.882Z,26.80
2022-11-05T08:46:26.710Z,34.50
2022-11-05T08:49:12.416Z,25.17
2022-11-05T08:51:58.071Z,28.90
2022-11-05T08:54:43.735Z,25.67
2022-11-05T08:57:29.555Z,30.80
2022-11-05T09:00:15.820Z,25.90
2022-11-05T09:03:05.859Z,29.60
2022-11-05T09:05:51.323Z,27.93
2022-11-05T09:08:36.770Z,27.27
2022-11-05T09:11:22.308Z,27.03
2022-11-05T09:14:08.109Z,23.50
2022-11-05T09:16:54.170Z,26.77
2022-11-05T09:19:40.248Z,24.13
2022-11-05T09:22:26.503Z,23.57
2022-11-05T09:25:12.300Z,24.60
2022-11-05T09:28:20.349Z,23.97
2022-11-05T09:31:10.790Z,28.43
2022-11-05T09:33:56.251Z,22.33
2022-11-05T09:36:42.118Z,25.80
2022-11-05T09:39:30.232Z,23.83
2022-11-05T09:42:19.809Z,20.27
2022-11-05T09:45:14.988Z,20.57
2022-11-05T09:48:07.427Z,21.37
2022-11-05T09:50:53.692Z,18.87
2022-11-05T09:53:41.290Z,17.27
2022-11-05T09:56:30.759Z,16.40
2022-11-05T09:59:18.915Z,20.30
2022-11-05T10:02:32.855Z,17.10
2022-11-05T10:05:20.182Z,15.77
2022-11-05T10:08:28.935Z,14.20
2022-11-05T10:11:19.241Z,13.82
2022-11-05T10:14:13.825Z,13.88
2022-11-05T10:17:09.344Z,17.23
2022-11-05T10:20:02.628Z,12.90
2022-11-05T10:22:55.035Z,13.00
2022-11-05T10:25:50.489Z,11.18
2022-11-05T10:28:36.517Z,12.50
2022-11-05T10:31:23.443Z,10.85
2022-11-05T10:34:11.374Z,11.63
2022-11-05T10:36:57.264Z,14.00
2022-11-05T10:39:42.917Z,11.18
2022-11-05T10:42:31.212Z,10.88
2022-11-05T10:45:49.069Z,11.68
2022-11-05T10:48:49.527Z,8.25
2022-11-05T10:51:35.333Z,9.77
2022-11-05T10:54:23.797Z,9.05
2022-11-05T10:57:36.555Z,9.80
2022-11-05T11:00:25.083Z,9.63
2022-11-05T11:03:35.709Z,9.10
2022-11-05T11:06:37.849Z,10.05
2022-11-05T11:09:36.154Z,8.00
2022-11-05T11:12:25.854Z,10.70
2022-11-05T11:15:15.734Z,10.15
2022-11-05T11:18:26.989Z,7.03
2022-11-05T11:21:19.619Z,9.40
2022-11-05T11:24:09.495Z,8.07
2022-11-05T11:27:01.090Z,8.32
2022-11-05T11:30:15.714Z,8.38
2022-11-05T11:33:07.813Z,6.05
2022-11-05T11:35:53.302Z,7.35
2022-11-05T11:38:40.169Z,8.20
2022-11-05T11:41:31.194Z,7.72
2022-11-05T11:44:24.625Z,6.63
2022-11-05T11:47:15.135Z,5.57
2022-11-05T11:50:02.943Z,6.25
2022-11-05T11:52:48.422Z,5.65
2022-11-05T11:55:33.991Z,8.80
2022-11-05T11:58:19.521Z,5.07
2022-11-05T12:01:19.888Z,6.50
2022-11-05T12:04:24.124Z,6.22
2022-11-05T12:07:37.646Z,4.30
2022-11-05T12:10:50.431Z,7.63
2022-11-05T12:14:04.439Z,4.63
2022-11-05T12:16:56.685Z,4.65
2022-11-05T12:20:01.094Z,5.65
2022-11-05T12:23:25.715Z,5.53
2022-11-05T12:26:27.052Z,4.90
2022-11-05T12:29:19.497Z,5.15
2022-11-05T12:32:14.114Z,4.68
2022-11-05T12:35:44.127Z,4.65
2022-11-05T12:38:54.378Z,7.25
2022-11-05T12:42:02.241Z,4.10
2022-11-05T12:44:57.905Z,5.68
2022-11-05T12:48:15.460Z,4.82
2022-11-05T12:51:20.131Z,4.05
2022-11-05T12:54:20.663Z,5.15
2022-11-05T12:57:11.949Z,3.22
2022-11-05T13:00:18.829Z,5.53
2022-11-05T13:03:19.595Z,5.05
2022-11-05T13:06:13.819Z,6.03
2022-11-05T13:09:18.598Z,4.05
2022-11-05T13:12:12.860Z,3.85
2022-11-05T13:15:03.866Z,4.00
2022-11-05T13:17:58.407Z,4.60
2022-11-05T13:20:49.787Z,5.88
2022-11-05T13:24:02.418Z,3.42
2022-11-05T13:26:58.615Z,5.75
2022-11-05T13:29:53.391Z,4.60
2022-11-05T13:32:43.583Z,4.22
2022-11-05T13:35:37.084Z,4.80
2022-11-05T13:38:44.821Z,3.15
2022-11-05T13:41:45.470Z,2.85
2022-11-05T13:44:59.899Z,4.57
2022-11-05T13:48:03.915Z,3.67
2022-11-05T13:51:11.474Z,3.92
2022-11-05T13:54:33.445Z,4.53
2022-11-05T13:57:56.654Z,5.55
2022-11-05T14:00:57.034Z,5.18
2022-11-05T14:03:50.824Z,4.53
2022-11-05T14:06:37.075Z,4.05
2022-11-05T14:09:27.297Z,3.75
2022-11-05T14:12:26.953Z,4.10
2022-11-05T14:15:15.401Z,3.95
2022-11-05T14:18:18.473Z,4.18
2022-11-05T14:21:06.050Z,3.75
2022-11-05T14:23:57.277Z,3.55
2022-11-05T14:26:43.087Z,4.65
2022-11-05T14:29:48.037Z,4.10
2022-11-05T14:32:46.042Z,5.57
2022-11-05T14:35:38.669Z,2.78
2022-11-05T14:38:28.364Z,5.22
2022-11-05T14:41:14.261Z,4.70
2022-11-05T14:44:05.667Z,3.35
2022-11-05T14:46:55.087Z,3.55
2022-11-05T14:49:56.443Z,5.68
2022-11-05T14:52:54.699Z,4.85
2022-11-05T14:55:43.067Z,2.65
2022-11-05T14:58:35.461Z,3.72
2022-11-05T15:01:40.653Z,3.22
2022-11-05T15:04:29.469Z,4.78
2022-11-05T15:07:24.053Z,3.97
2022-11-05T15:10:13.675Z,2.30
2022-11-05T15:13:04.926Z,2.78
2022-11-05T15:15:51.677Z,5.07
2022-11-05T15:18:44.017Z,3.33
2022-11-05T15:21:34.478Z,3.67
2022-11-05T15:24:21.680Z,2.85
2022-11-05T15:27:25.811Z,2.78
2022-11-05T15:30:20.755Z,5.25
2022-11-05T15:33:21.278Z,3.30
2022-11-05T15:36:27.696Z,2.80
2022-11-05T15:39:45.192Z,2.40
2022-11-05T15:42:30.816Z,4.32
2022-11-05T15:45:20.999Z,4.82
2022-11-05T15:48:19.762Z,3.85
2022-11-05T15:51:06.168Z,2.78
2022-11-05T15:57:01.654Z,2.42
2022-11-05T15:59:48.001Z,2.47
2022-11-05T16:02:36.393Z,2.10
2022-11-05T16:05:24.249Z,4.18
2022-11-05T16:08:26.356Z,3.28
2022-11-05T16:11:22.128Z,3.80
2022-11-05T16:14:18.879Z,2.95
2022-11-05T16:17:19.083Z,3.65
2022-11-05T16:20:19.653Z,2.70
2022-11-05T16:23:08.308Z,3.05
2022-11-05T16:25:53.784Z,5.63
2022-11-05T16:28:39.462Z,3.55
2022-11-05T16:31:31.250Z,2.92
2022-11-05T16:34:35.180Z,2.13
2022-11-05T16:37:24.187Z,3.97
2022-11-05T16:40:15.826Z,2.70
2022-11-05T16:43:17.027Z,5.03
2022-11-05T16:46:02.707Z,3.45
2022-11-05T16:48:48.642Z,2.50
2022-11-05T16:51:34.522Z,2.83
2022-11-05T16:54:19.947Z,2.83
2022-11-05T16:57:07.234Z,3.65
2022-11-05T16:59:54.179Z,2.83
2022-11-05T17:02:39.909Z,2.00
2022-11-05T17:05:30.611Z,3.67
2022-11-05T17:08:16.672Z,3.15
2022-11-05T17:11:02.515Z,3.13
2022-11-05T17:13:48.443Z,2.55
2022-11-05T17:16:33.993Z,1.70
2022-11-05T17:19:19.395Z,3.05
2022-11-05T17:22:05.078Z,2.15
2022-11-05T17:24:50.606Z,3.83
2022-11-05T17:27:36.097Z,2.85
2022-11-05T17:30:21.948Z,2.67
2022-11-05T17:33:07.925Z,2.88
2022-11-05T17:35:54.389Z,3.78
2022-11-05T17:38:40.638Z,2.85
2022-11-05T17:41:26.152Z,3.10
2022-11-05T17:44:12.219Z,2.85
2022-11-05T17:46:57.699Z,2.65
2022-11-05T17:49:43.239Z,4.45
2022-11-05T17:52:28.942Z,3.92
2022-11-05T17:55:17.732Z,3.38
2022-11-05T17:58:03.421Z,3.17
2022-11-05T18:00:49.009Z,3.05
2022-11-05T18:03:35.123Z,3.28
2022-11-05T18:06:21.514Z,2.83
2022-11-05T18:09:08.634Z,3.58
2022-11-05T18:11:54.446Z,3.63
2022-11-05T18:14:40.073Z,2.33
2022-11-05T18:17:28.277Z,3.70
2022-11-05T18:20:18.917Z,3.58
2022-11-05T18:23:05.105Z,2.97
2022-11-05T18:25:51.030Z,2.17
2022-11-05T18:28:36.742Z,4.20
2022-11-05T18:31:23.070Z,3.40
2022-11-05T18:34:10.426Z,2.67
2022-11-05T18:36:56.860Z,3.13
2022-11-05T18:39:42.999Z,2.35
2022-11-05T18:42:28.991Z,2.55
2022-11-05T18:45:14.767Z,2.95
2022-11-05T18:48:03.959Z,2.30
2022-11-05T18:50:49.664Z,2.58
2022-11-05T18:53:35.103Z,3.25
2022-11-05T18:56:20.918Z,3.28
2022-11-05T18:59:34.595Z,3.10
2022-11-05T19:02:12.783Z,3.47
2022-11-05T19:08:04.895Z,3.50
2022-11-05T19:10:53.021Z,3.40
2022-11-05T19:13:39.539Z,2.75
2022-11-05T19:16:27.063Z,1.92
2022-11-05T19:19:12.634Z,2.67
2022-11-05T19:21:58.115Z,2.97
2022-11-05T19:24:43.677Z,3.15
2022-11-05T19:27:29.131Z,2.35
2022-11-05T19:30:14.831Z,2.33
2022-11-05T19:33:00.736Z,2.55
2022-11-05T19:35:46.229Z,2.75
2022-11-05T19:38:32.144Z,2.35
2022-11-05T19:41:18.418Z,3.42
2022-11-05T19:44:04.741Z,2.30
2022-11-05T19:46:50.717Z,3.07
2022-11-05T19:49:36.283Z,3.10
2022-11-05T19:52:22.173Z,5.43
2022-11-05T19:55:12.169Z,4.73
2022-11-05T19:57:57.968Z,5.17
2022-11-05T20:00:44.124Z,5.87
2022-11-05T20:03:30.100Z,6.03
2022-11-05T20:06:18.751Z,9.17
2022-11-05T20:09:21.196Z,5.63
2022-11-05T20:12:08.291Z,14.03
2022-11-05T20:14:53.856Z,9.97
2022-11-05T20:17:39.334Z,6.33
2022-11-05T20:20:24.909Z,6.00
2022-11-05T20:23:11.401Z,5.13
2022-11-05T20:25:58.648Z,5.60
2022-11-05T20:28:45.597Z,4.23
2022-11-05T20:31:31.191Z,5.17
2022-11-05T20:34:16.718Z,4.07
2022-11-05T20:37:02.162Z,4.03
2022-11-05T20:39:47.728Z,4.63
2022-11-05T20:42:36.886Z,3.90
2022-11-05T20:45:22.378Z,3.43
2022-11-05T20:48:07.877Z,2.60
2022-11-05T20:50:53.705Z,4.63
2022-11-05T20:53:40.318Z,4.57
2022-11-05T20:56:31.799Z,7.10
2022-11-05T20:59:17.930Z,3.73
2022-11-05T21:02:04.865Z,5.83
2022-11-05T21:04:52.246Z,3.83
2022-11-05T21:07:37.811Z,6.00
2022-11-05T21:10:24.476Z,3.70
2022-11-05T21:13:09.997Z,7.07
2022-11-05T21:15:58.569Z,3.43
2022-11-05T21:18:44.782Z,5.27
2022-11-05T21:21:30.631Z,2.60
2022-11-05T21:24:16.255Z,4.23
2022-11-05T21:27:02.260Z,2.80
2022-11-05T21:29:47.995Z,5.57
2022-11-05T21:32:33.643Z,3.53
2022-11-05T21:35:19.108Z,3.40
2022-11-05T21:38:04.575Z,7.47
2022-11-05T21:40:50.159Z,6.33
2022-11-05T21:43:37.689Z,3.67
2022-11-05T21:46:24.584Z,3.53
2022-11-05T21:49:10.320Z,7.07
2022-11-05T21:52:14.641Z,4.97
2022-11-05T21:55:18.621Z,4.80
2022-11-05T21:58:47.795Z,3.73
2022-11-05T22:01:33.689Z,4.23
2022-11-05T22:04:19.473Z,3.87
2022-11-05T22:07:06.283Z,4.27
2022-11-05T22:09:52.476Z,5.50
2022-11-05T22:12:38.392Z,4.27
2022-11-05T22:15:23.896Z,4.20
2022-11-05T22:18:09.706Z,2.70
2022-11-05T22:20:55.446Z,3.53
2022-11-05T22:23:41.101Z,4.63
2022-11-05T22:26:26.506Z,5.23
2022-11-05T22:29:12.951Z,3.47
2022-11-05T22:31:58.555Z,6.30
2022-11-05T22:34:43.978Z,5.67
2022-11-05T22:37:29.487Z,4.00
2022-11-05T22:40:15.159Z,4.77
2022-11-05T22:43:00.648Z,4.13
2022-11-05T22:45:46.260Z,7.57
2022-11-05T22:48:32.354Z,5.27
2022-11-05T22:51:32.158Z,6.10
2022-11-05T22:54:18.613Z,4.63
2022-11-05T22:57:04.155Z,4.30
2022-11-05T22:59:50.352Z,3.30
2022-11-05T23:02:35.941Z,3.23
2022-11-05T23:05:21.846Z,3.63
2022-11-05T23:08:25.682Z,3.93
2022-11-05T23:11:38.790Z,5.80
2022-11-05T23:14:24.722Z,5.00
2022-11-05T23:17:28.635Z,4.07
2022-11-05T23:20:38.902Z,4.30
2022-11-05T23:23:42.826Z,3.43
2022-11-05T23:26:46.734Z,4.20
2022-11-05T23:29:32.227Z,4.53
2022-11-05T23:32:28.125Z,5.07
2022-11-05T23:35:14.657Z,5.30
2022-11-05T23:38:18.888Z,4.33
2022-11-05T23:41:24.603Z,3.10
2022-11-05T23:44:28.372Z,7.47
2022-11-05T23:47:32.346Z,3.83
2022-11-05T23:50:17.921Z,5.50
2022-11-05T23:53:03.412Z,4.60
2022-11-05T23:55:49.803Z,4.77
2022-11-05T23:58:36.417Z,4.67
